createdAt,value
2023-05-16T00:00:43.009Z,246.24
2023-05-16T00:01:43.143Z,245.81
2023-05-16T00:02:43.289Z,245.57
2023-05-16T00:03:43.325Z,245.88
2023-05-16T00:04:43.359Z,243.83
2023-05-16T00:05:43.338Z,246.43
2023-05-16T00:06:43.771Z,244.43
2023-05-16T00:07:43.521Z,244.22
2023-05-16T00:08:43.558Z,245.42
2023-05-16T00:09:43.579Z,245.28
2023-05-16T00:10:43.626Z,244.61
2023-05-16T00:11:43.698Z,244.54
2023-05-16T00:12:43.780Z,243.46
2023-05-16T00:13:43.817Z,243.69
2023-05-16T00:14:43.918Z,244.69
2023-05-16T00:15:43.985Z,243.15
2023-05-16T00:16:44.076Z,243.32
2023-05-16T00:17:44.156Z,243.92
2023-05-16T00:18:44.152Z,243.09
2023-05-16T00:19:44.202Z,243.72
2023-05-16T00:20:44.274Z,242.17
2023-05-16T00:21:44.386Z,244.02
2023-05-16T00:22:44.402Z,244.19
2023-05-16T00:23:44.486Z,244.49
2023-05-16T00:24:44.518Z,243.94
2023-05-16T00:25:44.679Z,243.82
2023-05-16T00:26:44.685Z,242.73
2023-05-16T00:27:44.746Z,244.13
2023-05-16T00:28:44.788Z,244.58
2023-05-16T00:29:44.851Z,243.33
2023-05-16T00:30:44.917Z,244.41
2023-05-16T00:31:45.043Z,244.22
2023-05-16T00:32:45.058Z,243.10
2023-05-16T00:33:45.159Z,245.25
2023-05-16T00:34:45.178Z,242.84
2023-05-16T00:35:45.222Z,243.55
2023-05-16T00:36:45.261Z,242.86
2023-05-16T00:37:45.347Z,242.44
2023-05-16T00:38:45.420Z,242.68
2023-05-16T00:39:45.602Z,242.98
2023-05-16T00:40:45.571Z,243.14
2023-05-16T00:41:45.551Z,241.86
2023-05-16T00:42:45.622Z,242.21
2023-05-16T00:43:45.702Z,241.76
2023-05-16T00:44:45.790Z,242.95
2023-05-16T00:45:45.776Z,240.31
2023-05-16T00:46:45.890Z,242.07
2023-05-16T00:47:46.026Z,241.19
2023-05-16T00:48:45.977Z,242.58
2023-05-16T00:49:46.093Z,243.18
2023-05-16T00:50:46.098Z,242.40
2023-05-16T00:51:46.132Z,241.69
2023-05-16T00:52:46.243Z,242.15
2023-05-16T00:53:46.257Z,241.94
2023-05-16T00:54:46.324Z,242.38
2023-05-16T00:55:46.389Z,242.99
2023-05-16T00:56:46.449Z,242.09
2023-05-16T00:57:46.544Z,242.76
2023-05-16T00:58:46.607Z,241.75
2023-05-16T00:59:46.713Z,243.31
2023-05-16T01:00:48.591Z,242.74
2023-05-16T01:01:46.873Z,242.30
2023-05-16T01:02:46.939Z,241.32
2023-05-16T01:03:48.087Z,241.52
2023-05-16T01:04:47.011Z,240.46
2023-05-16T01:05:47.014Z,241.47
2023-05-16T01:06:47.060Z,242.12
2023-05-16T01:07:47.165Z,242.17
2023-05-16T01:08:47.202Z,240.81
2023-05-16T01:09:47.222Z,242.59
2023-05-16T01:10:47.257Z,240.76
2023-05-16T01:11:47.864Z,242.50
2023-05-16T01:12:47.389Z,241.82
2023-05-16T01:13:47.474Z,240.80
2023-05-16T01:14:47.584Z,241.75
2023-05-16T01:15:47.519Z,242.15
2023-05-16T01:16:47.706Z,240.78
2023-05-16T01:17:47.875Z,243.16
2023-05-16T01:18:47.726Z,242.19
2023-05-16T01:19:47.858Z,241.92
2023-05-16T01:20:47.864Z,242.85
2023-05-16T01:21:48.038Z,241.84
2023-05-16T01:22:47.968Z,241.47
2023-05-16T01:23:48.059Z,242.02
2023-05-16T01:24:48.151Z,243.53
2023-05-16T01:25:48.169Z,244.27
2023-05-16T01:26:48.192Z,243.64
2023-05-16T01:27:48.285Z,243.67
2023-05-16T01:28:48.389Z,243.66
2023-05-16T01:29:48.402Z,243.06
2023-05-16T01:30:48.492Z,242.72
2023-05-16T01:31:48.573Z,243.70
2023-05-16T01:32:48.619Z,243.14
2023-05-16T01:33:48.631Z,242.29
2023-05-16T01:34:48.642Z,242.41
2023-05-16T01:35:48.675Z,243.49
2023-05-16T01:36:48.691Z,243.81
2023-05-16T01:37:48.739Z,242.40
2023-05-16T01:38:48.802Z,242.26
2023-05-16T01:39:48.891Z,242.87
2023-05-16T01:40:48.903Z,242.27
2023-05-16T01:41:48.971Z,242.17
2023-05-16T01:42:49.109Z,242.59
2023-05-16T01:43:49.109Z,242.51
2023-05-16T01:44:49.238Z,243.49
2023-05-16T01:45:49.202Z,241.16
2023-05-16T01:46:49.238Z,243.13
2023-05-16T01:47:49.378Z,241.97
2023-05-16T01:48:49.331Z,242.96
2023-05-16T01:49:49.461Z,243.32
2023-05-16T01:50:49.446Z,243.38
2023-05-16T01:51:49.522Z,244.05
2023-05-16T01:52:49.565Z,242.76
2023-05-16T01:53:49.585Z,242.90
2023-05-16T01:54:49.725Z,242.23
2023-05-16T01:55:49.689Z,242.84
2023-05-16T01:56:49.754Z,244.23
2023-05-16T01:57:49.837Z,244.15
2023-05-16T01:58:49.903Z,243.69
2023-05-16T01:59:50.044Z,243.60
2023-05-16T02:00:50.009Z,244.20
2023-05-16T02:01:50.033Z,241.50
2023-05-16T02:02:50.178Z,243.28
2023-05-16T02:03:50.206Z,242.96
2023-05-16T02:04:50.248Z,243.29
2023-05-16T02:05:50.287Z,243.47
2023-05-16T02:06:50.385Z,243.21
2023-05-16T02:07:50.423Z,242.77
2023-05-16T02:08:50.465Z,243.78
2023-05-16T02:09:50.631Z,241.64
2023-05-16T02:10:50.635Z,243.67
2023-05-16T02:11:50.698Z,243.76
2023-05-16T02:12:50.756Z,243.58
2023-05-16T02:13:50.735Z,243.22
2023-05-16T02:14:50.730Z,241.80
2023-05-16T02:15:50.787Z,242.81
2023-05-16T02:16:50.848Z,244.37
2023-05-16T02:17:50.926Z,243.25
2023-05-16T02:18:51.024Z,243.37
2023-05-16T02:19:51.004Z,241.98
2023-05-16T02:20:51.088Z,243.49
2023-05-16T02:21:51.122Z,242.90
2023-05-16T02:22:51.197Z,243.12
2023-05-16T02:23:51.234Z,243.49
2023-05-16T02:24:51.281Z,244.45
2023-05-16T02:25:51.374Z,242.65
2023-05-16T02:26:51.369Z,243.54
2023-05-16T02:27:51.394Z,242.89
2023-05-16T02:28:51.484Z,243.60
2023-05-16T02:29:51.586Z,244.08
2023-05-16T02:30:51.626Z,244.13
2023-05-16T02:31:51.644Z,243.78
2023-05-16T02:32:51.737Z,243.95
2023-05-16T02:33:51.737Z,241.59
2023-05-16T02:34:51.794Z,243.74
2023-05-16T02:35:51.841Z,242.45
2023-05-16T02:36:51.951Z,242.27
2023-05-16T02:37:51.938Z,241.23
2023-05-16T02:38:51.974Z,241.95
2023-05-16T02:39:52.187Z,241.95
2023-05-16T02:40:52.080Z,242.44
2023-05-16T02:41:52.202Z,242.03
2023-05-16T02:42:52.166Z,243.38
2023-05-16T02:43:52.158Z,243.23
2023-05-16T02:44:52.213Z,242.02
2023-05-16T02:45:52.329Z,241.78
2023-05-16T02:46:52.447Z,242.17
2023-05-16T02:47:52.454Z,243.27
2023-05-16T02:48:52.437Z,242.44
2023-05-16T02:49:52.575Z,241.26
2023-05-16T02:50:52.516Z,243.39
2023-05-16T02:51:52.625Z,241.86
2023-05-16T02:52:52.714Z,242.86
2023-05-16T02:53:52.686Z,241.80
2023-05-16T02:55:52.763Z,243.99
2023-05-16T02:56:52.766Z,243.54
2023-05-16T02:57:52.718Z,243.08
2023-05-16T02:58:52.715Z,243.18
2023-05-16T02:59:52.780Z,244.35
2023-05-16T03:00:52.717Z,243.09
2023-05-16T03:01:52.818Z,244.06
2023-05-16T03:02:52.894Z,242.78
2023-05-16T03:03:52.853Z,241.74
2023-05-16T03:04:52.720Z,242.99
2023-05-16T03:05:52.724Z,242.62
2023-05-16T03:06:52.690Z,244.15
2023-05-16T03:07:52.657Z,244.38
2023-05-16T03:08:52.673Z,243.94
2023-05-16T03:09:52.653Z,244.54
2023-05-16T03:10:52.658Z,243.67
2023-05-16T03:11:52.669Z,244.02
2023-05-16T03:12:52.668Z,243.81
2023-05-16T03:13:52.691Z,244.91
2023-05-16T03:14:52.620Z,244.97
2023-05-16T03:15:52.656Z,244.65
2023-05-16T03:16:52.609Z,244.67
2023-05-16T03:17:52.711Z,244.67
2023-05-16T03:18:52.633Z,243.34
2023-05-16T03:19:52.573Z,243.53
2023-05-16T03:20:52.607Z,243.75
2023-05-16T03:21:52.591Z,242.42
2023-05-16T03:22:52.562Z,242.20
2023-05-16T03:23:52.572Z,242.34
2023-05-16T03:24:52.540Z,241.63
2023-05-16T03:25:52.555Z,242.32
2023-05-16T03:26:52.528Z,242.21
2023-05-16T03:27:52.567Z,241.36
2023-05-16T03:28:52.504Z,240.30
2023-05-16T03:29:52.604Z,240.55
2023-05-16T03:30:52.519Z,240.49
2023-05-16T03:31:52.567Z,240.20
2023-05-16T03:32:52.512Z,240.21
2023-05-16T03:33:52.479Z,239.65
2023-05-16T03:34:52.548Z,241.16
2023-05-16T03:35:52.479Z,240.55
2023-05-16T03:36:52.455Z,240.62
2023-05-16T03:37:52.463Z,244.03
2023-05-16T03:38:52.454Z,242.83
2023-05-16T03:39:52.436Z,241.68
2023-05-16T03:40:52.448Z,244.39
2023-05-16T03:41:52.416Z,243.00
2023-05-16T03:42:52.517Z,243.33
2023-05-16T03:43:52.532Z,243.08
2023-05-16T03:44:52.650Z,243.87
2023-05-16T03:45:52.707Z,244.89
2023-05-16T03:46:52.713Z,242.95
2023-05-16T03:47:52.763Z,243.23
2023-05-16T03:48:52.819Z,246.25
2023-05-16T03:49:52.847Z,243.85
2023-05-16T03:50:52.889Z,244.20
2023-05-16T03:51:52.952Z,244.19
2023-05-16T03:52:53.011Z,243.26
2023-05-16T03:53:53.035Z,243.58
2023-05-16T03:54:53.094Z,243.84
2023-05-16T03:55:53.169Z,241.78
2023-05-16T03:56:53.202Z,243.37
2023-05-16T03:57:53.283Z,243.75
2023-05-16T03:58:53.312Z,243.99
2023-05-16T03:59:53.359Z,243.55
2023-05-16T04:00:53.416Z,243.08
2023-05-16T04:01:53.520Z,242.33
2023-05-16T04:02:53.675Z,243.47
2023-05-16T04:03:53.493Z,243.39
2023-05-16T04:04:53.537Z,244.12
2023-05-16T04:05:53.684Z,243.92
2023-05-16T04:06:53.610Z,243.68
2023-05-16T04:07:53.700Z,242.94
2023-05-16T04:08:53.785Z,241.10
2023-05-16T04:09:53.779Z,240.22
2023-05-16T04:10:53.852Z,237.72
2023-05-16T04:11:53.875Z,238.07
2023-05-16T04:12:53.898Z,237.10
2023-05-16T04:13:53.973Z,237.18
2023-05-16T04:14:54.057Z,236.34
2023-05-16T04:15:54.078Z,235.61
2023-05-16T04:16:54.126Z,235.31
2023-05-16T04:17:54.247Z,235.25
2023-05-16T04:18:54.341Z,235.25
2023-05-16T04:19:54.303Z,234.89
2023-05-16T04:20:54.347Z,234.05
2023-05-16T04:21:54.431Z,234.59
2023-05-16T04:22:54.474Z,234.04
2023-05-16T04:23:54.532Z,233.37
2023-05-16T04:24:54.583Z,233.19
2023-05-16T04:25:54.652Z,233.46
2023-05-16T04:26:54.719Z,234.31
2023-05-16T04:27:54.782Z,234.87
2023-05-16T04:28:54.892Z,232.76
2023-05-16T04:29:55.163Z,234.67
2023-05-16T04:30:54.931Z,234.71
2023-05-16T04:31:55.037Z,234.83
2023-05-16T04:32:55.118Z,235.33
2023-05-16T04:33:55.123Z,236.14
2023-05-16T04:34:55.178Z,235.64
2023-05-16T04:35:55.193Z,237.00
2023-05-16T04:36:55.290Z,237.07
2023-05-16T04:37:55.288Z,236.72
2023-05-16T04:38:55.304Z,236.08
2023-05-16T04:39:55.369Z,237.66
2023-05-16T04:40:55.410Z,236.42
2023-05-16T04:41:55.431Z,237.56
2023-05-16T04:42:55.489Z,237.58
2023-05-16T04:43:55.539Z,236.83
2023-05-16T04:44:55.560Z,237.03
2023-05-16T04:45:55.647Z,237.34
2023-05-16T04:46:55.664Z,238.90
2023-05-16T04:47:55.748Z,239.31
2023-05-16T04:48:55.637Z,239.34
2023-05-16T04:49:55.646Z,237.20
2023-05-16T04:50:55.711Z,238.47
2023-05-16T04:51:55.710Z,238.59
2023-05-16T04:52:56.574Z,237.35
2023-05-16T04:53:55.652Z,237.40
2023-05-16T04:54:55.740Z,237.60
2023-05-16T04:55:55.668Z,238.17
2023-05-16T04:56:55.676Z,237.28
2023-05-16T04:57:55.668Z,237.63
2023-05-16T04:58:55.708Z,238.09
2023-05-16T04:59:55.765Z,236.73
2023-05-16T05:00:55.733Z,238.03
2023-05-16T05:01:55.717Z,237.76
2023-05-16T05:02:55.729Z,237.71
2023-05-16T05:03:55.643Z,239.34
2023-05-16T05:04:55.640Z,238.14
2023-05-16T05:05:55.613Z,240.02
2023-05-16T05:06:55.625Z,240.79
2023-05-16T05:07:55.696Z,242.07
2023-05-16T05:08:55.651Z,243.37
2023-05-16T05:09:55.615Z,243.85
2023-05-16T05:10:55.616Z,245.08
2023-05-16T05:11:55.622Z,246.00
2023-05-16T05:12:55.630Z,248.10
2023-05-16T05:13:55.661Z,249.33
2023-05-16T05:14:55.645Z,249.01
2023-05-16T05:15:55.599Z,247.57
2023-05-16T05:16:55.630Z,249.47
2023-05-16T05:17:55.676Z,248.70
2023-05-16T05:18:55.686Z,248.12
2023-05-16T05:19:55.588Z,249.87
2023-05-16T05:20:55.620Z,248.85
2023-05-16T05:21:55.562Z,250.00
2023-05-16T05:22:55.591Z,248.63
2023-05-16T05:23:55.592Z,249.96
2023-05-16T05:24:55.580Z,247.35
2023-05-16T05:25:55.658Z,248.28
2023-05-16T05:26:55.613Z,248.74
2023-05-16T05:27:55.603Z,248.18
2023-05-16T05:29:04.505Z,250.00
2023-05-16T05:29:56.609Z,249.06
2023-05-16T05:30:55.700Z,248.29
2023-05-16T05:31:55.622Z,250.90
2023-05-16T05:32:55.588Z,252.61
2023-05-16T05:33:55.593Z,257.38
2023-05-16T05:34:55.619Z,249.92
2023-05-16T05:35:55.679Z,248.73
2023-05-16T05:36:55.621Z,245.60
2023-05-16T05:37:55.654Z,249.15
2023-05-16T05:38:55.523Z,248.13
2023-05-16T05:39:55.582Z,249.51
2023-05-16T05:40:55.607Z,250.00
2023-05-16T05:41:55.527Z,249.92
2023-05-16T05:42:55.566Z,248.75
2023-05-16T05:43:55.567Z,250.00
2023-05-16T05:44:55.515Z,249.11
2023-05-16T05:45:55.514Z,248.51
2023-05-16T05:46:55.572Z,249.61
2023-05-16T05:47:55.464Z,250.00
2023-05-16T05:48:55.522Z,248.43
2023-05-16T05:49:55.512Z,248.11
2023-05-16T05:50:55.477Z,248.23
2023-05-16T05:51:55.432Z,248.47
2023-05-16T05:52:55.428Z,249.10
2023-05-16T05:53:55.404Z,248.24
2023-05-16T05:54:55.946Z,248.84
2023-05-16T05:55:55.512Z,249.38
2023-05-16T05:56:55.523Z,247.15
2023-05-16T05:57:55.535Z,249.56
2023-05-16T05:58:55.695Z,247.64
2023-05-16T05:59:55.707Z,248.99
2023-05-16T06:00:55.694Z,246.65
2023-05-16T06:01:55.795Z,248.56
2023-05-16T06:02:56.002Z,248.97
2023-05-16T06:03:55.922Z,249.04
2023-05-16T06:04:55.977Z,248.42
2023-05-16T06:05:56.059Z,248.07
2023-05-16T06:06:56.108Z,250.00
2023-05-16T06:07:56.104Z,248.59
2023-05-16T06:08:56.216Z,249.44
2023-05-16T06:09:56.270Z,247.62
2023-05-16T06:10:57.864Z,248.33
2023-05-16T06:11:56.332Z,248.08
2023-05-16T06:12:56.446Z,248.18
2023-05-16T06:13:56.496Z,248.91
2023-05-16T06:14:56.565Z,248.61
2023-05-16T06:15:56.610Z,247.72
2023-05-16T06:16:56.707Z,247.98
2023-05-16T06:17:56.821Z,247.65
2023-05-16T06:18:56.856Z,247.34
2023-05-16T06:19:56.855Z,248.52
2023-05-16T06:20:56.910Z,246.13
2023-05-16T06:21:56.961Z,248.24
2023-05-16T06:22:57.079Z,246.88
2023-05-16T06:23:57.076Z,247.98
2023-05-16T06:24:57.141Z,250.00
2023-05-16T06:25:57.252Z,246.96
2023-05-16T06:26:57.315Z,247.19
2023-05-16T06:27:57.390Z,248.63
2023-05-16T06:28:57.426Z,248.46
2023-05-16T06:29:57.479Z,247.82
2023-05-16T06:30:57.634Z,248.47
2023-05-16T06:31:57.773Z,248.79
2023-05-16T06:32:57.685Z,248.86
2023-05-16T06:33:57.664Z,246.80
2023-05-16T06:34:57.720Z,247.03
2023-05-16T06:35:57.736Z,247.25
2023-05-16T06:36:57.844Z,246.98
2023-05-16T06:37:58.458Z,255.65
2023-05-16T06:38:58.117Z,248.75
2023-05-16T06:39:57.704Z,249.89
2023-05-16T06:40:58.629Z,246.95
2023-05-16T06:41:57.720Z,245.90
2023-05-16T06:42:57.726Z,245.62
2023-05-16T06:43:57.728Z,247.69
2023-05-16T06:44:57.737Z,249.43
2023-05-16T06:45:57.810Z,249.72
2023-05-16T06:46:57.940Z,247.55
2023-05-16T06:47:57.904Z,248.81
2023-05-16T06:48:57.891Z,245.55
2023-05-16T06:49:57.974Z,245.99
2023-05-16T06:50:58.058Z,247.55
2023-05-16T06:51:58.088Z,245.00
2023-05-16T06:52:58.155Z,242.52
2023-05-16T06:53:58.211Z,240.41
2023-05-16T06:54:58.277Z,238.39
2023-05-16T06:55:58.316Z,237.81
2023-05-16T06:56:58.386Z,230.48
2023-05-16T06:57:58.439Z,230.29
2023-05-16T06:58:58.503Z,227.25
2023-05-16T06:59:58.569Z,227.08
2023-05-16T07:00:58.635Z,229.23
2023-05-16T07:01:58.676Z,222.36
2023-05-16T07:02:58.787Z,220.55
2023-05-16T07:03:58.931Z,218.73
2023-05-16T07:04:58.843Z,223.13
2023-05-16T07:05:58.903Z,216.70
2023-05-16T07:06:58.980Z,218.39
2023-05-16T07:07:59.081Z,219.02
2023-05-16T07:08:59.138Z,218.67
2023-05-16T07:09:59.202Z,216.37
2023-05-16T07:10:59.235Z,216.83
2023-05-16T07:11:59.284Z,214.25
2023-05-16T07:12:59.334Z,213.60
2023-05-16T07:13:59.420Z,214.16
2023-05-16T07:14:59.427Z,214.69
2023-05-16T07:15:59.564Z,212.63
2023-05-16T07:16:59.645Z,211.46
2023-05-16T07:17:59.704Z,213.97
2023-05-16T07:18:59.709Z,201.83
2023-05-16T07:19:59.736Z,203.81
2023-05-16T07:20:59.783Z,208.09
2023-05-16T07:21:59.829Z,210.48
2023-05-16T07:22:59.907Z,212.34
2023-05-16T07:23:59.948Z,208.10
2023-05-16T07:25:00.039Z,209.54
2023-05-16T07:26:00.087Z,201.64
2023-05-16T07:27:00.075Z,205.02
2023-05-16T07:28:00.239Z,208.27
2023-05-16T07:29:00.185Z,204.76
2023-05-16T07:30:00.253Z,196.57
2023-05-16T07:31:00.324Z,196.47
2023-05-16T07:32:00.441Z,201.26
2023-05-16T07:33:00.486Z,203.59
2023-05-16T07:34:00.544Z,195.60
2023-05-16T07:35:00.591Z,188.53
2023-05-16T07:36:12.010Z,179.36
2023-05-16T07:37:01.554Z,175.78
2023-05-16T07:38:00.559Z,171.30
2023-05-16T07:39:00.560Z,168.73
2023-05-16T07:40:00.537Z,166.74
2023-05-16T07:41:00.536Z,169.96
2023-05-16T07:42:00.560Z,180.42
2023-05-16T07:43:00.485Z,185.30
2023-05-16T07:44:00.488Z,184.47
2023-05-16T07:45:00.619Z,188.31
2023-05-16T07:46:00.644Z,183.50
2023-05-16T07:47:00.688Z,186.54
2023-05-16T07:48:00.749Z,178.67
2023-05-16T07:49:01.069Z,183.12
2023-05-16T07:50:00.800Z,178.29
2023-05-16T07:51:00.873Z,176.95
2023-05-16T07:52:01.048Z,174.28
2023-05-16T07:53:00.982Z,172.28
2023-05-16T07:54:01.014Z,163.70
2023-05-16T07:55:01.126Z,163.91
2023-05-16T07:56:01.141Z,165.57
2023-05-16T07:57:01.138Z,165.66
2023-05-16T07:58:01.235Z,168.34
2023-05-16T07:59:01.290Z,163.38
2023-05-16T08:00:01.382Z,165.07
2023-05-16T08:01:01.337Z,165.62
2023-05-16T08:02:01.399Z,165.89
2023-05-16T08:03:01.569Z,166.96
2023-05-16T08:04:01.690Z,169.24
2023-05-16T08:05:01.596Z,173.66
2023-05-16T08:06:01.652Z,177.49
2023-05-16T08:07:01.661Z,175.52
2023-05-16T08:08:01.689Z,179.90
2023-05-16T08:09:01.734Z,180.54
2023-05-16T08:10:01.797Z,177.56
2023-05-16T08:11:01.802Z,176.85
2023-05-16T08:12:02.079Z,179.10
2023-05-16T08:13:01.950Z,180.95
2023-05-16T08:14:01.983Z,180.01
2023-05-16T08:15:01.994Z,182.45
2023-05-16T08:16:02.119Z,184.43
2023-05-16T08:17:02.061Z,185.03
2023-05-16T08:18:02.137Z,187.84
2023-05-16T08:19:02.383Z,188.17
2023-05-16T08:20:02.238Z,188.87
2023-05-16T08:21:02.275Z,190.05
2023-05-16T08:22:02.298Z,190.66
2023-05-16T08:23:02.351Z,192.09
2023-05-16T08:24:02.840Z,194.54
2023-05-16T08:25:02.427Z,196.11
2023-05-16T08:26:02.469Z,197.36
2023-05-16T08:27:02.508Z,201.75
2023-05-16T08:28:02.605Z,215.43
2023-05-16T08:29:02.638Z,214.75
2023-05-16T08:30:02.645Z,213.29
2023-05-16T08:31:02.777Z,213.31
2023-05-16T08:32:02.833Z,213.34
2023-05-16T08:33:02.870Z,215.90
2023-05-16T08:34:02.894Z,219.08
2023-05-16T08:35:03.551Z,221.16
2023-05-16T08:36:03.060Z,217.31
2023-05-16T08:37:03.143Z,211.11
2023-05-16T08:38:03.345Z,199.90
2023-05-16T08:39:03.287Z,196.51
2023-05-16T08:40:03.182Z,194.08
2023-05-16T08:41:03.290Z,204.42
2023-05-16T08:42:03.295Z,202.84
2023-05-16T08:43:03.414Z,201.21
2023-05-16T08:44:03.416Z,199.59
2023-05-16T08:45:03.519Z,201.43
2023-05-16T08:46:03.486Z,204.35
2023-05-16T08:47:03.813Z,205.11
2023-05-16T08:48:03.710Z,211.22
2023-05-16T08:49:03.708Z,211.11
2023-05-16T08:50:03.686Z,209.87
2023-05-16T08:51:03.792Z,209.39
2023-05-16T08:52:03.833Z,205.95
2023-05-16T08:53:03.896Z,207.01
2023-05-16T08:54:03.915Z,207.97
2023-05-16T08:55:10.408Z,208.12
2023-05-16T08:56:04.953Z,208.22
2023-05-16T08:57:04.500Z,208.26
2023-05-16T08:58:03.932Z,205.40
2023-05-16T08:59:03.999Z,202.20
2023-05-16T09:00:03.943Z,200.18
2023-05-16T09:01:03.977Z,200.98
2023-05-16T09:02:03.911Z,201.67
2023-05-16T09:03:03.933Z,198.16
2023-05-16T09:04:03.971Z,197.06
2023-05-16T09:05:03.865Z,195.64
2023-05-16T09:06:04.553Z,192.45
2023-05-16T09:07:03.931Z,195.49
2023-05-16T09:08:03.890Z,192.10
2023-05-16T09:09:04.002Z,194.98
2023-05-16T09:10:03.996Z,191.90
2023-05-16T09:11:04.004Z,193.87
2023-05-16T09:12:04.180Z,177.37
2023-05-16T09:13:04.119Z,176.25
2023-05-16T09:14:04.129Z,178.54
2023-05-16T09:15:04.548Z,176.18
2023-05-16T09:16:04.245Z,171.80
2023-05-16T09:17:04.345Z,169.48
2023-05-16T09:18:04.422Z,170.21
2023-05-16T09:19:04.410Z,168.40
2023-05-16T09:20:04.362Z,158.74
2023-05-16T09:21:04.376Z,154.57
2023-05-16T09:22:04.489Z,150.56
2023-05-16T09:23:04.674Z,149.01
2023-05-16T09:24:04.561Z,150.09
2023-05-16T09:25:06.880Z,151.29
2023-05-16T09:26:04.478Z,151.21
2023-05-16T09:27:04.531Z,149.55
2023-05-16T09:28:04.609Z,146.18
2023-05-16T09:29:04.495Z,147.09
2023-05-16T09:30:04.659Z,148.03
2023-05-16T09:31:04.558Z,149.70
2023-05-16T09:32:04.476Z,151.12
2023-05-16T09:33:04.548Z,155.95
2023-05-16T09:34:04.546Z,163.24
2023-05-16T09:35:04.525Z,172.21
2023-05-16T09:36:04.501Z,168.27
2023-05-16T09:37:04.556Z,171.20
2023-05-16T09:38:04.514Z,162.82
2023-05-16T09:39:04.453Z,162.86
2023-05-16T09:40:04.464Z,163.79
2023-05-16T09:41:04.415Z,168.68
2023-05-16T09:42:04.429Z,163.94
2023-05-16T09:43:04.635Z,155.74
2023-05-16T09:44:04.391Z,154.47
2023-05-16T09:45:04.487Z,159.02
2023-05-16T09:46:04.473Z,149.05
2023-05-16T09:47:04.358Z,147.84
2023-05-16T09:48:04.408Z,142.97
2023-05-16T09:49:04.392Z,145.92
2023-05-16T09:50:04.432Z,144.48
2023-05-16T09:51:04.378Z,151.35
2023-05-16T09:52:04.320Z,152.98
2023-05-16T09:53:04.522Z,154.09
2023-05-16T09:54:04.347Z,149.17
2023-05-16T09:55:04.320Z,148.98
2023-05-16T09:56:04.529Z,146.75
2023-05-16T09:57:04.411Z,147.07
2023-05-16T09:58:04.337Z,146.28
2023-05-16T09:59:04.290Z,150.84
2023-05-16T10:00:04.298Z,158.36
2023-05-16T10:01:04.321Z,170.27
2023-05-16T10:02:04.290Z,177.17
2023-05-16T10:03:05.782Z,179.40
2023-05-16T10:04:04.565Z,183.60
2023-05-16T10:05:04.259Z,185.58
2023-05-16T10:06:04.255Z,188.11
2023-05-16T10:07:04.315Z,188.97
2023-05-16T10:08:04.217Z,191.86
2023-05-16T10:09:04.260Z,190.52
2023-05-16T10:10:04.339Z,190.16
2023-05-16T10:11:04.345Z,191.67
2023-05-16T10:12:04.366Z,194.97
2023-05-16T10:13:04.367Z,195.62
2023-05-16T10:14:06.046Z,197.42
2023-05-16T10:15:04.441Z,198.28
2023-05-16T10:16:04.581Z,200.24
2023-05-16T10:17:05.013Z,201.47
2023-05-16T10:18:04.426Z,202.77
2023-05-16T10:19:04.446Z,203.09
2023-05-16T10:20:04.370Z,201.32
2023-05-16T10:21:04.441Z,204.34
2023-05-16T10:22:04.402Z,202.95
2023-05-16T10:23:04.381Z,203.30
2023-05-16T10:24:04.350Z,202.74
2023-05-16T10:25:04.359Z,203.40
2023-05-16T10:26:04.322Z,200.08
2023-05-16T10:27:04.335Z,199.26
2023-05-16T10:28:04.346Z,198.90
2023-05-16T10:29:04.321Z,202.04
2023-05-16T10:30:04.271Z,205.80
2023-05-16T10:31:04.407Z,206.18
2023-05-16T10:32:04.321Z,206.92
2023-05-16T10:33:04.371Z,205.13
2023-05-16T10:34:04.278Z,206.28
2023-05-16T10:35:04.280Z,210.13
2023-05-16T10:36:04.291Z,211.55
2023-05-16T10:37:04.363Z,213.17
2023-05-16T10:38:06.578Z,214.81
2023-05-16T10:39:04.212Z,214.92
2023-05-16T10:40:04.194Z,215.59
2023-05-16T10:41:04.206Z,221.26
2023-05-16T10:42:04.196Z,227.99
2023-05-16T10:43:04.209Z,235.42
2023-05-16T10:44:04.173Z,238.36
2023-05-16T10:45:05.872Z,243.62
2023-05-16T10:46:04.246Z,249.96
2023-05-16T10:47:04.218Z,250.00
2023-05-16T10:48:04.205Z,250.00
2023-05-16T10:49:04.181Z,250.59
2023-05-16T10:50:04.107Z,247.22
2023-05-16T10:51:04.422Z,249.10
2023-05-16T10:52:04.116Z,249.87
2023-05-16T10:53:04.155Z,249.25
2023-05-16T10:54:04.415Z,249.12
2023-05-16T10:55:04.199Z,249.06
2023-05-16T10:56:04.255Z,243.06
2023-05-16T10:57:04.281Z,246.98
2023-05-16T10:58:04.388Z,249.25
2023-05-16T10:59:04.357Z,241.38
2023-05-16T11:00:04.385Z,241.95
2023-05-16T11:01:04.459Z,238.62
2023-05-16T11:02:04.663Z,242.47
2023-05-16T11:03:04.609Z,240.12
2023-05-16T11:04:04.910Z,240.45
2023-05-16T11:05:04.579Z,239.64
2023-05-16T11:06:04.628Z,242.02
2023-05-16T11:07:04.678Z,230.56
2023-05-16T11:08:04.703Z,237.42
2023-05-16T11:09:04.749Z,239.00
2023-05-16T11:10:04.792Z,233.21
2023-05-16T11:11:04.819Z,240.15
2023-05-16T11:12:04.876Z,232.45
2023-05-16T11:13:04.924Z,241.44
2023-05-16T11:14:05.063Z,237.46
2023-05-16T11:15:05.009Z,236.24
2023-05-16T11:16:05.095Z,241.20
2023-05-16T11:17:05.258Z,242.91
2023-05-16T11:18:05.630Z,241.03
2023-05-16T11:19:05.297Z,240.90
2023-05-16T11:20:05.403Z,242.82
2023-05-16T11:21:05.349Z,246.05
2023-05-16T11:22:05.421Z,248.24
2023-05-16T11:23:05.460Z,249.67
2023-05-16T11:24:05.466Z,249.18
2023-05-16T11:25:05.532Z,246.72
2023-05-16T11:26:05.568Z,248.29
2023-05-16T11:27:05.629Z,246.94
2023-05-16T11:28:05.941Z,245.87
2023-05-16T11:29:05.748Z,243.07
2023-05-16T11:30:05.795Z,241.70
2023-05-16T11:31:05.852Z,240.03
2023-05-16T11:32:05.954Z,237.56
2023-05-16T11:33:06.033Z,234.43
2023-05-16T11:34:05.957Z,234.19
2023-05-16T11:35:05.994Z,234.76
2023-05-16T11:37:06.022Z,233.99
2023-05-16T11:38:06.036Z,235.95
2023-05-16T11:39:06.029Z,234.84
2023-05-16T11:40:06.037Z,234.80
2023-05-16T11:41:05.984Z,235.53
2023-05-16T11:42:06.024Z,234.34
2023-05-16T11:43:07.472Z,234.61
2023-05-16T11:44:05.976Z,235.79
2023-05-16T11:45:05.970Z,233.32
2023-05-16T11:46:06.055Z,232.32
2023-05-16T11:47:06.036Z,229.80
2023-05-16T11:48:06.149Z,230.57
2023-05-16T11:49:05.951Z,229.60
2023-05-16T11:50:06.023Z,229.59
2023-05-16T11:51:05.932Z,226.72
2023-05-16T11:52:06.016Z,226.57
2023-05-16T11:53:05.927Z,225.57
2023-05-16T11:54:05.909Z,221.38
2023-05-16T11:55:05.950Z,218.93
2023-05-16T11:56:05.955Z,212.35
2023-05-16T11:57:05.904Z,213.84
2023-05-16T11:58:05.898Z,210.32
2023-05-16T11:59:05.914Z,208.44
2023-05-16T12:00:05.953Z,202.58
2023-05-16T12:01:06.103Z,197.64
2023-05-16T12:02:06.030Z,201.15
2023-05-16T12:03:06.706Z,202.12
2023-05-16T12:04:06.244Z,203.49
2023-05-16T12:05:06.198Z,203.22
2023-05-16T12:06:06.217Z,206.67
2023-05-16T12:07:06.259Z,207.23
2023-05-16T12:08:06.312Z,207.70
2023-05-16T12:09:06.420Z,210.16
2023-05-16T12:10:06.456Z,212.11
2023-05-16T12:11:06.982Z,214.83
2023-05-16T12:12:06.514Z,214.68
2023-05-16T12:13:06.585Z,213.19
2023-05-16T12:14:06.663Z,212.17
2023-05-16T12:15:06.684Z,211.02
2023-05-16T12:16:06.806Z,210.94
2023-05-16T12:17:06.915Z,210.86
2023-05-16T12:18:06.908Z,212.13
2023-05-16T12:19:07.076Z,210.72
2023-05-16T12:20:07.024Z,209.20
2023-05-16T12:21:07.069Z,209.34
2023-05-16T12:22:07.148Z,208.34
2023-05-16T12:23:07.266Z,207.59
2023-05-16T12:24:07.304Z,206.88
2023-05-16T12:25:07.307Z,206.52
2023-05-16T12:26:07.362Z,207.28
2023-05-16T12:27:07.441Z,206.11
2023-05-16T12:28:07.477Z,208.32
2023-05-16T12:29:07.620Z,207.87
2023-05-16T12:30:07.607Z,206.13
2023-05-16T12:31:13.286Z,207.10